sensor_id;sensor_type;location;lat;lon;timestamp;P1;durP1;ratioP1;P2;durP2;ratioP2
83560;SDS011;73534;52.584;13.392;2024-02-14T00:01:05;10.93;;;7.90;;
83560;SDS011;73534;52.584;13.392;2024-02-14T00:03:33;12.60;;;8.02;;
83560;SDS011;73534;52.584;13.392;2024-02-14T00:05:58;10.02;;;8.05;;
83560;SDS011;73534;52.584;13.392;2024-02-14T00:08:24;12.23;;;8.25;;
83560;SDS011;73534;52.584;13.392;2024-02-14T00:10:49;11.73;;;8.45;;
83560;SDS011;73534;52.584;13.392;2024-02-14T00:13:14;9.50;;;7.13;;
83560;SDS011;73534;52.584;13.392;2024-02-14T00:15:39;10.73;;;7.17;;
83560;SDS011;73534;52.584;13.392;2024-02-14T00:18:05;11.30;;;7.78;;
83560;SDS011;73534;52.584;13.392;2024-02-14T00:20:30;9.43;;;7.40;;
83560;SDS011;73534;52.584;13.392;2024-02-14T00:22:55;10.18;;;6.82;;
83560;SDS011;73534;52.584;13.392;2024-02-14T00:25:21;9.90;;;7.20;;
83560;SDS011;73534;52.584;13.392;2024-02-14T00:27:46;10.02;;;7.38;;
83560;SDS011;73534;52.584;13.392;2024-02-14T00:30:11;9.85;;;7.43;;
83560;SDS011;73534;52.584;13.392;2024-02-14T00:32:36;9.45;;;7.35;;
83560;SDS011;73534;52.584;13.392;2024-02-14T00:35:01;10.27;;;7.13;;
83560;SDS011;73534;52.584;13.392;2024-02-14T00:37:27;8.95;;;6.97;;
83560;SDS011;73534;52.584;13.392;2024-02-14T00:39:53;10.10;;;6.88;;
83560;SDS011;73534;52.584;13.392;2024-02-14T00:42:19;9.02;;;7.05;;
83560;SDS011;73534;52.584;13.392;2024-02-14T00:44:44;9.70;;;6.87;;
83560;SDS011;73534;52.584;13.392;2024-02-14T00:47:09;10.80;;;7.77;;
83560;SDS011;73534;52.584;13.392;2024-02-14T00:49:34;9.55;;;6.63;;
83560;SDS011;73534;52.584;13.392;2024-02-14T00:51:59;10.95;;;7.35;;
83560;SDS011;73534;52.584;13.392;2024-02-14T00:54:25;9.10;;;7.23;;
83560;SDS011;73534;52.584;13.392;2024-02-14T00:56:50;10.75;;;7.38;;
83560;SDS011;73534;52.584;13.392;2024-02-14T00:59:15;9.83;;;7.00;;
83560;SDS011;73534;52.584;13.392;2024-02-14T01:01:41;9.38;;;6.60;;
83560;SDS011;73534;52.584;13.392;2024-02-14T01:04:06;10.13;;;6.72;;
83560;SDS011;73534;52.584;13.392;2024-02-14T01:06:32;10.65;;;7.45;;
83560;SDS011;73534;52.584;13.392;2024-02-14T01:08:57;9.85;;;7.20;;
83560;SDS011;73534;52.584;13.392;2024-02-14T01:11:22;12.23;;;7.35;;
83560;SDS011;73534;52.584;13.392;2024-02-14T01:13:47;9.25;;;7.22;;
83560;SDS011;73534;52.584;13.392;2024-02-14T01:16:12;9.75;;;7.18;;
83560;SDS011;73534;52.584;13.392;2024-02-14T01:18:37;11.25;;;7.15;;
83560;SDS011;73534;52.584;13.392;2024-02-14T01:21:02;9.77;;;7.32;;
83560;SDS011;73534;52.584;13.392;2024-02-14T01:23:28;9.63;;;7.07;;
83560;SDS011;73534;52.584;13.392;2024-02-14T01:25:53;10.98;;;7.45;;
83560;SDS011;73534;52.584;13.392;2024-02-14T01:28:20;9.68;;;7.10;;
83560;SDS011;73534;52.584;13.392;2024-02-14T01:30:45;9.93;;;7.20;;
83560;SDS011;73534;52.584;13.392;2024-02-14T01:33:10;9.13;;;7.18;;
83560;SDS011;73534;52.584;13.392;2024-02-14T01:35:35;10.67;;;7.63;;
83560;SDS011;73534;52.584;13.392;2024-02-14T01:38:01;10.53;;;7.47;;
83560;SDS011;73534;52.584;13.392;2024-02-14T01:40:27;9.80;;;7.80;;
83560;SDS011;73534;52.584;13.392;2024-02-14T01:42:52;10.88;;;7.60;;
83560;SDS011;73534;52.584;13.392;2024-02-14T01:45:18;10.77;;;7.60;;
83560;SDS011;73534;52.584;13.392;2024-02-14T01:47:43;9.90;;;6.65;;
83560;SDS011;73534;52.584;13.392;2024-02-14T01:50:08;9.50;;;6.43;;
83560;SDS011;73534;52.584;13.392;2024-02-14T01:52:36;8.68;;;6.47;;
83560;SDS011;73534;52.584;13.392;2024-02-14T01:55:02;8.32;;;7.03;;
83560;SDS011;73534;52.584;13.392;2024-02-14T01:59:54;10.88;;;6.75;;
83560;SDS011;73534;52.584;13.392;2024-02-14T02:02:21;10.00;;;6.30;;
83560;SDS011;73534;52.584;13.392;2024-02-14T02:04:46;9.30;;;6.88;;
83560;SDS011;73534;52.584;13.392;2024-02-14T02:07:12;10.27;;;7.07;;
83560;SDS011;73534;52.584;13.392;2024-02-14T02:09:37;13.63;;;9.38;;
83560;SDS011;73534;52.584;13.392;2024-02-14T02:12:02;12.63;;;8.60;;
83560;SDS011;73534;52.584;13.392;2024-02-14T02:14:31;10.02;;;7.57;;
83560;SDS011;73534;52.584;13.392;2024-02-14T02:16:56;9.88;;;7.07;;
83560;SDS011;73534;52.584;13.392;2024-02-14T02:19:22;9.65;;;6.63;;
83560;SDS011;73534;52.584;13.392;2024-02-14T02:21:47;10.48;;;7.18;;
83560;SDS011;73534;52.584;13.392;2024-02-14T02:24:12;9.00;;;6.57;;
83560;SDS011;73534;52.584;13.392;2024-02-14T02:26:38;10.52;;;7.40;;
83560;SDS011;73534;52.584;13.392;2024-02-14T02:29:03;8.70;;;6.82;;
83560;SDS011;73534;52.584;13.392;2024-02-14T02:31:30;10.48;;;7.13;;
83560;SDS011;73534;52.584;13.392;2024-02-14T02:33:55;9.40;;;6.50;;
83560;SDS011;73534;52.584;13.392;2024-02-14T02:36:20;9.65;;;7.72;;
83560;SDS011;73534;52.584;13.392;2024-02-14T02:38:49;8.13;;;6.80;;
83560;SDS011;73534;52.584;13.392;2024-02-14T02:41:15;11.47;;;7.13;;
83560;SDS011;73534;52.584;13.392;2024-02-14T02:43:40;10.15;;;7.28;;
83560;SDS011;73534;52.584;13.392;2024-02-14T02:46:05;10.40;;;7.78;;
83560;SDS011;73534;52.584;13.392;2024-02-14T02:48:30;9.88;;;7.18;;
83560;SDS011;73534;52.584;13.392;2024-02-14T02:50:56;8.82;;;7.70;;
83560;SDS011;73534;52.584;13.392;2024-02-14T02:53:21;9.30;;;7.03;;
83560;SDS011;73534;52.584;13.392;2024-02-14T02:55:46;10.30;;;7.22;;
83560;SDS011;73534;52.584;13.392;2024-02-14T02:58:12;12.33;;;7.13;;
83560;SDS011;73534;52.584;13.392;2024-02-14T03:00:37;9.88;;;7.57;;
83560;SDS011;73534;52.584;13.392;2024-02-14T03:03:02;10.82;;;7.20;;
83560;SDS011;73534;52.584;13.392;2024-02-14T03:05:29;12.45;;;7.90;;
83560;SDS011;73534;52.584;13.392;2024-02-14T03:07:56;11.18;;;6.75;;
83560;SDS011;73534;52.584;13.392;2024-02-14T03:10:23;12.27;;;7.63;;
83560;SDS011;73534;52.584;13.392;2024-02-14T03:12:49;8.45;;;6.93;;
83560;SDS011;73534;52.584;13.392;2024-02-14T03:15:15;10.37;;;7.20;;
83560;SDS011;73534;52.584;13.392;2024-02-14T03:17:40;10.77;;;7.80;;
83560;SDS011;73534;52.584;13.392;2024-02-14T03:20:07;9.30;;;7.30;;
83560;SDS011;73534;52.584;13.392;2024-02-14T03:22:35;10.02;;;7.22;;
83560;SDS011;73534;52.584;13.392;2024-02-14T03:25:00;8.73;;;7.03;;
83560;SDS011;73534;52.584;13.392;2024-02-14T03:27:25;10.60;;;7.35;;
83560;SDS011;73534;52.584;13.392;2024-02-14T03:29:51;9.68;;;7.35;;
83560;SDS011;73534;52.584;13.392;2024-02-14T03:32:17;10.07;;;6.87;;
83560;SDS011;73534;52.584;13.392;2024-02-14T03:34:42;9.63;;;7.90;;
83560;SDS011;73534;52.584;13.392;2024-02-14T03:37:07;10.68;;;8.27;;
83560;SDS011;73534;52.584;13.392;2024-02-14T03:39:32;10.85;;;7.63;;
83560;SDS011;73534;52.584;13.392;2024-02-14T03:41:57;10.57;;;7.50;;
83560;SDS011;73534;52.584;13.392;2024-02-14T03:44:23;10.93;;;8.18;;
83560;SDS011;73534;52.584;13.392;2024-02-14T03:46:49;11.60;;;8.40;;
83560;SDS011;73534;52.584;13.392;2024-02-14T03:49:14;8.15;;;7.10;;
83560;SDS011;73534;52.584;13.392;2024-02-14T03:51:39;11.33;;;7.53;;
83560;SDS011;73534;52.584;13.392;2024-02-14T03:54:05;8.65;;;7.05;;
83560;SDS011;73534;52.584;13.392;2024-02-14T03:56:30;7.63;;;6.80;;
83560;SDS011;73534;52.584;13.392;2024-02-14T04:01:22;10.60;;;7.38;;
83560;SDS011;73534;52.584;13.392;2024-02-14T04:03:47;9.75;;;7.25;;
83560;SDS011;73534;52.584;13.392;2024-02-14T04:06:13;10.45;;;7.20;;
83560;SDS011;73534;52.584;13.392;2024-02-14T04:08:39;9.90;;;7.68;;
83560;SDS011;73534;52.584;13.392;2024-02-14T04:11:04;12.32;;;8.27;;
83560;SDS011;73534;52.584;13.392;2024-02-14T04:13:29;11.35;;;8.20;;
83560;SDS011;73534;52.584;13.392;2024-02-14T04:15:54;10.07;;;7.40;;
83560;SDS011;73534;52.584;13.392;2024-02-14T04:18:19;9.20;;;7.93;;
83560;SDS011;73534;52.584;13.392;2024-02-14T04:20:44;11.18;;;7.38;;
83560;SDS011;73534;52.584;13.392;2024-02-14T04:23:10;10.97;;;7.93;;
83560;SDS011;73534;52.584;13.392;2024-02-14T04:25:35;8.55;;;6.95;;
83560;SDS011;73534;52.584;13.392;2024-02-14T04:28:02;10.23;;;7.55;;
83560;SDS011;73534;52.584;13.392;2024-02-14T04:30:27;9.93;;;7.75;;
83560;SDS011;73534;52.584;13.392;2024-02-14T04:32:52;10.80;;;7.37;;
83560;SDS011;73534;52.584;13.392;2024-02-14T04:35:20;9.20;;;7.30;;
83560;SDS011;73534;52.584;13.392;2024-02-14T04:37:45;10.27;;;7.40;;
83560;SDS011;73534;52.584;13.392;2024-02-14T04:40:14;11.77;;;7.22;;
83560;SDS011;73534;52.584;13.392;2024-02-14T04:42:42;11.00;;;7.15;;
83560;SDS011;73534;52.584;13.392;2024-02-14T04:45:07;11.15;;;7.50;;
83560;SDS011;73534;52.584;13.392;2024-02-14T04:47:33;9.32;;;7.75;;
83560;SDS011;73534;52.584;13.392;2024-02-14T04:49:58;10.47;;;7.20;;
83560;SDS011;73534;52.584;13.392;2024-02-14T04:52:24;8.73;;;7.72;;
83560;SDS011;73534;52.584;13.392;2024-02-14T04:54:50;9.73;;;7.70;;
83560;SDS011;73534;52.584;13.392;2024-02-14T04:57:15;10.98;;;7.55;;
83560;SDS011;73534;52.584;13.392;2024-02-14T04:59:40;10.90;;;8.10;;
83560;SDS011;73534;52.584;13.392;2024-02-14T05:02:05;9.27;;;7.43;;
83560;SDS011;73534;52.584;13.392;2024-02-14T05:04:30;10.10;;;7.10;;
83560;SDS011;73534;52.584;13.392;2024-02-14T05:06:56;10.00;;;8.60;;
83560;SDS011;73534;52.584;13.392;2024-02-14T05:09:22;11.63;;;8.55;;
83560;SDS011;73534;52.584;13.392;2024-02-14T05:11:47;11.73;;;7.70;;
83560;SDS011;73534;52.584;13.392;2024-02-14T05:14:12;10.32;;;7.88;;
83560;SDS011;73534;52.584;13.392;2024-02-14T05:16:37;9.82;;;7.72;;
83560;SDS011;73534;52.584;13.392;2024-02-14T05:19:02;9.47;;;7.67;;
83560;SDS011;73534;52.584;13.392;2024-02-14T05:21:27;11.32;;;8.02;;
83560;SDS011;73534;52.584;13.392;2024-02-14T05:23:53;10.48;;;8.10;;
83560;SDS011;73534;52.584;13.392;2024-02-14T05:26:18;9.82;;;7.38;;
83560;SDS011;73534;52.584;13.392;2024-02-14T05:28:43;9.63;;;8.32;;
83560;SDS011;73534;52.584;13.392;2024-02-14T05:31:09;8.88;;;7.50;;
83560;SDS011;73534;52.584;13.392;2024-02-14T05:33:34;10.37;;;7.70;;
83560;SDS011;73534;52.584;13.392;2024-02-14T05:36:00;9.70;;;7.53;;
83560;SDS011;73534;52.584;13.392;2024-02-14T05:38:26;9.60;;;6.90;;
83560;SDS011;73534;52.584;13.392;2024-02-14T05:40:51;11.65;;;8.50;;
83560;SDS011;73534;52.584;13.392;2024-02-14T05:43:17;10.53;;;7.10;;
83560;SDS011;73534;52.584;13.392;2024-02-14T05:45:43;10.45;;;8.13;;
83560;SDS011;73534;52.584;13.392;2024-02-14T05:48:08;11.50;;;8.03;;
83560;SDS011;73534;52.584;13.392;2024-02-14T05:50:33;10.60;;;7.88;;
83560;SDS011;73534;52.584;13.392;2024-02-14T05:52:59;9.88;;;7.45;;
83560;SDS011;73534;52.584;13.392;2024-02-14T05:55:24;9.65;;;7.13;;
83560;SDS011;73534;52.584;13.392;2024-02-14T05:57:50;9.40;;;8.02;;
83560;SDS011;73534;52.584;13.392;2024-02-14T06:00:16;11.23;;;7.75;;
83560;SDS011;73534;52.584;13.392;2024-02-14T06:02:43;10.60;;;7.30;;
83560;SDS011;73534;52.584;13.392;2024-02-14T06:05:08;11.97;;;7.80;;
83560;SDS011;73534;52.584;13.392;2024-02-14T06:07:35;9.13;;;7.18;;
83560;SDS011;73534;52.584;13.392;2024-02-14T06:10:00;10.90;;;7.93;;
83560;SDS011;73534;52.584;13.392;2024-02-14T06:12:25;12.87;;;8.07;;
83560;SDS011;73534;52.584;13.392;2024-02-14T06:14:50;11.85;;;8.27;;
83560;SDS011;73534;52.584;13.392;2024-02-14T06:17:15;10.53;;;7.87;;
83560;SDS011;73534;52.584;13.392;2024-02-14T06:19:41;8.98;;;7.15;;
83560;SDS011;73534;52.584;13.392;2024-02-14T06:22:06;14.13;;;9.20;;
83560;SDS011;73534;52.584;13.392;2024-02-14T06:24:31;11.90;;;8.55;;
83560;SDS011;73534;52.584;13.392;2024-02-14T06:26:56;10.90;;;8.05;;
83560;SDS011;73534;52.584;13.392;2024-02-14T06:29:22;10.60;;;7.25;;
83560;SDS011;73534;52.584;13.392;2024-02-14T06:31:47;11.10;;;7.25;;
83560;SDS011;73534;52.584;13.392;2024-02-14T06:34:12;10.33;;;8.13;;
83560;SDS011;73534;52.584;13.392;2024-02-14T06:36:37;10.63;;;8.03;;
83560;SDS011;73534;52.584;13.392;2024-02-14T06:39:02;13.00;;;8.33;;
83560;SDS011;73534;52.584;13.392;2024-02-14T06:41:28;11.80;;;7.70;;
83560;SDS011;73534;52.584;13.392;2024-02-14T06:43:54;10.88;;;7.85;;
83560;SDS011;73534;52.584;13.392;2024-02-14T06:46:19;9.90;;;6.82;;
83560;SDS011;73534;52.584;13.392;2024-02-14T06:48:45;12.02;;;6.95;;
83560;SDS011;73534;52.584;13.392;2024-02-14T06:51:10;8.73;;;7.33;;
83560;SDS011;73534;52.584;13.392;2024-02-14T06:53:35;12.02;;;7.63;;
83560;SDS011;73534;52.584;13.392;2024-02-14T06:56:00;10.07;;;7.82;;
83560;SDS011;73534;52.584;13.392;2024-02-14T06:58:26;10.03;;;7.60;;
83560;SDS011;73534;52.584;13.392;2024-02-14T07:00:51;10.25;;;7.90;;
83560;SDS011;73534;52.584;13.392;2024-02-14T07:03:16;11.05;;;8.10;;
83560;SDS011;73534;52.584;13.392;2024-02-14T07:05:41;8.45;;;7.53;;
83560;SDS011;73534;52.584;13.392;2024-02-14T07:08:06;11.50;;;7.55;;
83560;SDS011;73534;52.584;13.392;2024-02-14T07:10:31;10.47;;;8.23;;
83560;SDS011;73534;52.584;13.392;2024-02-14T07:12:57;10.75;;;7.18;;
83560;SDS011;73534;52.584;13.392;2024-02-14T07:15:22;9.10;;;7.37;;
83560;SDS011;73534;52.584;13.392;2024-02-14T07:17:50;11.02;;;7.03;;
83560;SDS011;73534;52.584;13.392;2024-02-14T07:20:15;9.30;;;6.97;;
83560;SDS011;73534;52.584;13.392;2024-02-14T07:22:42;10.85;;;7.25;;
83560;SDS011;73534;52.584;13.392;2024-02-14T07:25:07;9.60;;;6.65;;
83560;SDS011;73534;52.584;13.392;2024-02-14T07:27:32;8.70;;;6.97;;
83560;SDS011;73534;52.584;13.392;2024-02-14T07:29:58;8.93;;;6.32;;
83560;SDS011;73534;52.584;13.392;2024-02-14T07:32:23;10.67;;;7.20;;
83560;SDS011;73534;52.584;13.392;2024-02-14T07:34:48;11.18;;;7.07;;
83560;SDS011;73534;52.584;13.392;2024-02-14T07:37:14;10.70;;;7.07;;
83560;SDS011;73534;52.584;13.392;2024-02-14T07:39:41;9.25;;;6.30;;
83560;SDS011;73534;52.584;13.392;2024-02-14T07:42:06;9.23;;;6.93;;
83560;SDS011;73534;52.584;13.392;2024-02-14T07:44:31;9.07;;;6.37;;
83560;SDS011;73534;52.584;13.392;2024-02-14T07:46:57;7.88;;;5.95;;
83560;SDS011;73534;52.584;13.392;2024-02-14T07:49:22;7.53;;;6.53;;
83560;SDS011;73534;52.584;13.392;2024-02-14T07:51:47;8.15;;;5.78;;
83560;SDS011;73534;52.584;13.392;2024-02-14T07:54:13;9.25;;;7.03;;
83560;SDS011;73534;52.584;13.392;2024-02-14T07:56:38;8.80;;;6.68;;
83560;SDS011;73534;52.584;13.392;2024-02-14T07:59:03;7.77;;;6.37;;
83560;SDS011;73534;52.584;13.392;2024-02-14T08:01:30;9.43;;;6.18;;
83560;SDS011;73534;52.584;13.392;2024-02-14T08:03:55;7.15;;;6.07;;
83560;SDS011;73534;52.584;13.392;2024-02-14T08:06:21;9.35;;;6.00;;
83560;SDS011;73534;52.584;13.392;2024-02-14T08:08:46;8.48;;;5.90;;
83560;SDS011;73534;52.584;13.392;2024-02-14T08:11:11;6.65;;;5.78;;
83560;SDS011;73534;52.584;13.392;2024-02-14T08:13:36;9.73;;;6.03;;
83560;SDS011;73534;52.584;13.392;2024-02-14T08:16:04;9.13;;;6.38;;
83560;SDS011;73534;52.584;13.392;2024-02-14T08:18:29;9.05;;;6.30;;
83560;SDS011;73534;52.584;13.392;2024-02-14T08:20:54;7.68;;;6.05;;
83560;SDS011;73534;52.584;13.392;2024-02-14T08:23:19;8.52;;;6.20;;
83560;SDS011;73534;52.584;13.392;2024-02-14T08:25:45;9.88;;;6.38;;
83560;SDS011;73534;52.584;13.392;2024-02-14T08:28:10;8.32;;;6.75;;
83560;SDS011;73534;52.584;13.392;2024-02-14T08:30:35;9.57;;;6.80;;
83560;SDS011;73534;52.584;13.392;2024-02-14T08:33:02;9.93;;;6.35;;
83560;SDS011;73534;52.584;13.392;2024-02-14T08:35:27;7.45;;;6.53;;
83560;SDS011;73534;52.584;13.392;2024-02-14T08:37:53;8.07;;;6.07;;
83560;SDS011;73534;52.584;13.392;2024-02-14T08:40:18;9.73;;;6.93;;
83560;SDS011;73534;52.584;13.392;2024-02-14T08:42:43;10.00;;;5.93;;
83560;SDS011;73534;52.584;13.392;2024-02-14T08:45:08;9.50;;;6.60;;
83560;SDS011;73534;52.584;13.392;2024-02-14T08:47:34;9.32;;;6.53;;
83560;SDS011;73534;52.584;13.392;2024-02-14T08:49:59;7.72;;;6.95;;
83560;SDS011;73534;52.584;13.392;2024-02-14T08:52:25;9.02;;;6.53;;
83560;SDS011;73534;52.584;13.392;2024-02-14T08:54:50;8.38;;;6.05;;
83560;SDS011;73534;52.584;13.392;2024-02-14T08:57:15;9.30;;;5.90;;
83560;SDS011;73534;52.584;13.392;2024-02-14T08:59:41;8.37;;;6.30;;
83560;SDS011;73534;52.584;13.392;2024-02-14T09:02:08;8.05;;;5.85;;
83560;SDS011;73534;52.584;13.392;2024-02-14T09:04:33;9.55;;;5.65;;
83560;SDS011;73534;52.584;13.392;2024-02-14T09:06:59;8.23;;;6.20;;
83560;SDS011;73534;52.584;13.392;2024-02-14T09:09:24;6.65;;;5.00;;
83560;SDS011;73534;52.584;13.392;2024-02-14T09:11:49;8.07;;;6.45;;
83560;SDS011;73534;52.584;13.392;2024-02-14T09:14:15;6.68;;;5.70;;
83560;SDS011;73534;52.584;13.392;2024-02-14T09:16:40;7.37;;;5.13;;
83560;SDS011;73534;52.584;13.392;2024-02-14T09:19:06;7.43;;;5.47;;
83560;SDS011;73534;52.584;13.392;2024-02-14T09:21:33;6.28;;;5.28;;
83560;SDS011;73534;52.584;13.392;2024-02-14T09:23:59;7.82;;;5.40;;
83560;SDS011;73534;52.584;13.392;2024-02-14T09:26:24;6.57;;;4.93;;
83560;SDS011;73534;52.584;13.392;2024-02-14T09:28:49;4.87;;;4.40;;
83560;SDS011;73534;52.584;13.392;2024-02-14T09:31:18;6.17;;;4.43;;
83560;SDS011;73534;52.584;13.392;2024-02-14T09:33:44;7.88;;;5.25;;
83560;SDS011;73534;52.584;13.392;2024-02-14T09:36:10;5.32;;;4.57;;
83560;SDS011;73534;52.584;13.392;2024-02-14T09:38:36;8.23;;;4.50;;
83560;SDS011;73534;52.584;13.392;2024-02-14T09:41:25;7.95;;;4.88;;
83560;SDS011;73534;52.584;13.392;2024-02-14T09:43:47;6.85;;;4.55;;
83560;SDS011;73534;52.584;13.392;2024-02-14T09:46:13;6.82;;;5.53;;
83560;SDS011;73534;52.584;13.392;2024-02-14T09:48:39;6.85;;;4.45;;
83560;SDS011;73534;52.584;13.392;2024-02-14T09:51:04;7.18;;;4.68;;
83560;SDS011;73534;52.584;13.392;2024-02-14T09:53:30;5.90;;;4.47;;
83560;SDS011;73534;52.584;13.392;2024-02-14T09:55:57;7.22;;;4.70;;
83560;SDS011;73534;52.584;13.392;2024-02-14T09:58:23;6.85;;;4.20;;
83560;SDS011;73534;52.584;13.392;2024-02-14T10:00:49;6.22;;;4.60;;
83560;SDS011;73534;52.584;13.392;2024-02-14T10:03:16;6.45;;;4.60;;
83560;SDS011;73534;52.584;13.392;2024-02-14T10:05:41;5.30;;;4.40;;
83560;SDS011;73534;52.584;13.392;2024-02-14T10:08:07;5.30;;;4.47;;
83560;SDS011;73534;52.584;13.392;2024-02-14T10:10:35;7.07;;;5.53;;
83560;SDS011;73534;52.584;13.392;2024-02-14T10:13:00;7.18;;;5.22;;
83560;SDS011;73534;52.584;13.392;2024-02-14T10:15:25;6.10;;;4.47;;
83560;SDS011;73534;52.584;13.392;2024-02-14T10:17:51;6.95;;;4.70;;
83560;SDS011;73534;52.584;13.392;2024-02-14T10:20:17;7.38;;;4.90;;
83560;SDS011;73534;52.584;13.392;2024-02-14T10:22:42;6.13;;;4.43;;
83560;SDS011;73534;52.584;13.392;2024-02-14T10:25:07;7.10;;;5.23;;
83560;SDS011;73534;52.584;13.392;2024-02-14T10:27:34;8.63;;;4.82;;
83560;SDS011;73534;52.584;13.392;2024-02-14T10:29:59;6.13;;;4.97;;
83560;SDS011;73534;52.584;13.392;2024-02-14T10:32:25;4.77;;;4.30;;
83560;SDS011;73534;52.584;13.392;2024-02-14T10:34:50;7.20;;;4.90;;
83560;SDS011;73534;52.584;13.392;2024-02-14T10:37:15;6.33;;;4.87;;
83560;SDS011;73534;52.584;13.392;2024-02-14T10:39:43;5.38;;;4.80;;
83560;SDS011;73534;52.584;13.392;2024-02-14T10:42:09;7.30;;;5.20;;
83560;SDS011;73534;52.584;13.392;2024-02-14T10:44:35;8.97;;;5.80;;
83560;SDS011;73534;52.584;13.392;2024-02-14T10:47:00;6.80;;;4.72;;
83560;SDS011;73534;52.584;13.392;2024-02-14T10:49:27;6.55;;;5.35;;
83560;SDS011;73534;52.584;13.392;2024-02-14T10:51:54;6.70;;;4.65;;
83560;SDS011;73534;52.584;13.392;2024-02-14T10:54:20;6.10;;;4.30;;
83560;SDS011;73534;52.584;13.392;2024-02-14T10:56:48;8.85;;;4.60;;
83560;SDS011;73534;52.584;13.392;2024-02-14T10:59:15;5.68;;;4.60;;
83560;SDS011;73534;52.584;13.392;2024-02-14T11:01:41;5.40;;;4.45;;
83560;SDS011;73534;52.584;13.392;2024-02-14T11:04:07;6.82;;;4.95;;
83560;SDS011;73534;52.584;13.392;2024-02-14T11:06:43;8.18;;;4.72;;
83560;SDS011;73534;52.584;13.392;2024-02-14T11:09:11;5.90;;;4.32;;
83560;SDS011;73534;52.584;13.392;2024-02-14T11:11:37;5.30;;;4.60;;
83560;SDS011;73534;52.584;13.392;2024-02-14T11:14:02;5.70;;;4.85;;
83560;SDS011;73534;52.584;13.392;2024-02-14T11:16:30;5.45;;;4.50;;
83560;SDS011;73534;52.584;13.392;2024-02-14T11:19:07;6.93;;;4.22;;
83560;SDS011;73534;52.584;13.392;2024-02-14T11:21:35;6.57;;;4.60;;
83560;SDS011;73534;52.584;13.392;2024-02-14T11:24:04;5.95;;;5.05;;
83560;SDS011;73534;52.584;13.392;2024-02-14T11:26:36;7.97;;;4.65;;
83560;SDS011;73534;52.584;13.392;2024-02-14T11:29:02;7.00;;;5.50;;
83560;SDS011;73534;52.584;13.392;2024-02-14T11:31:35;8.73;;;4.80;;
83560;SDS011;73534;52.584;13.392;2024-02-14T11:34:03;6.20;;;4.63;;
83560;SDS011;73534;52.584;13.392;2024-02-14T11:36:29;6.90;;;4.85;;
83560;SDS011;73534;52.584;13.392;2024-02-14T11:38:54;7.70;;;4.78;;
83560;SDS011;73534;52.584;13.392;2024-02-14T11:41:20;6.47;;;4.63;;
83560;SDS011;73534;52.584;13.392;2024-02-14T11:43:51;7.10;;;5.03;;
83560;SDS011;73534;52.584;13.392;2024-02-14T11:46:16;7.07;;;4.97;;
83560;SDS011;73534;52.584;13.392;2024-02-14T11:48:43;6.75;;;5.10;;
83560;SDS011;73534;52.584;13.392;2024-02-14T11:51:10;7.03;;;4.95;;
83560;SDS011;73534;52.584;13.392;2024-02-14T11:53:35;6.25;;;5.57;;
83560;SDS011;73534;52.584;13.392;2024-02-14T11:56:00;5.32;;;4.80;;
83560;SDS011;73534;52.584;13.392;2024-02-14T11:58:26;5.70;;;4.87;;
83560;SDS011;73534;52.584;13.392;2024-02-14T12:00:51;6.72;;;4.85;;
83560;SDS011;73534;52.584;13.392;2024-02-14T12:03:16;6.67;;;4.57;;
83560;SDS011;73534;52.584;13.392;2024-02-14T12:05:42;8.65;;;4.40;;
83560;SDS011;73534;52.584;13.392;2024-02-14T12:08:10;8.68;;;5.15;;
83560;SDS011;73534;52.584;13.392;2024-02-14T12:10:36;5.60;;;4.78;;
83560;SDS011;73534;52.584;13.392;2024-02-14T12:15:27;6.18;;;4.65;;
83560;SDS011;73534;52.584;13.392;2024-02-14T12:17:54;6.53;;;4.82;;
83560;SDS011;73534;52.584;13.392;2024-02-14T12:20:21;8.40;;;5.22;;
83560;SDS011;73534;52.584;13.392;2024-02-14T12:22:49;6.80;;;4.97;;
83560;SDS011;73534;52.584;13.392;2024-02-14T12:25:14;8.23;;;5.75;;
83560;SDS011;73534;52.584;13.392;2024-02-14T12:27:40;5.63;;;4.88;;
83560;SDS011;73534;52.584;13.392;2024-02-14T12:30:06;9.10;;;5.23;;
83560;SDS011;73534;52.584;13.392;2024-02-14T12:32:31;4.65;;;4.22;;
83560;SDS011;73534;52.584;13.392;2024-02-14T12:34:56;6.90;;;5.07;;
83560;SDS011;73534;52.584;13.392;2024-02-14T12:37:25;5.97;;;4.82;;
83560;SDS011;73534;52.584;13.392;2024-02-14T12:39:50;6.37;;;5.20;;
83560;SDS011;73534;52.584;13.392;2024-02-14T12:42:15;5.63;;;5.03;;
83560;SDS011;73534;52.584;13.392;2024-02-14T12:44:43;5.70;;;4.97;;
83560;SDS011;73534;52.584;13.392;2024-02-14T12:47:09;7.03;;;4.93;;
83560;SDS011;73534;52.584;13.392;2024-02-14T12:52:00;10.35;;;5.18;;
83560;SDS011;73534;52.584;13.392;2024-02-14T12:54:25;5.47;;;4.85;;
83560;SDS011;73534;52.584;13.392;2024-02-14T12:56:51;7.32;;;4.47;;
83560;SDS011;73534;52.584;13.392;2024-02-14T12:59:17;6.18;;;4.63;;
83560;SDS011;73534;52.584;13.392;2024-02-14T13:01:45;7.53;;;5.10;;
83560;SDS011;73534;52.584;13.392;2024-02-14T13:04:12;7.80;;;5.20;;
83560;SDS011;73534;52.584;13.392;2024-02-14T13:06:39;7.30;;;5.10;;
83560;SDS011;73534;52.584;13.392;2024-02-14T13:09:04;6.15;;;5.03;;
83560;SDS011;73534;52.584;13.392;2024-02-14T13:11:33;7.32;;;4.97;;
83560;SDS011;73534;52.584;13.392;2024-02-14T13:13:58;6.88;;;4.90;;
83560;SDS011;73534;52.584;13.392;2024-02-14T13:16:23;6.97;;;5.47;;
83560;SDS011;73534;52.584;13.392;2024-02-14T13:18:48;7.65;;;5.88;;
83560;SDS011;73534;52.584;13.392;2024-02-14T13:21:14;6.55;;;5.82;;
83560;SDS011;73534;52.584;13.392;2024-02-14T13:23:39;6.13;;;4.88;;
83560;SDS011;73534;52.584;13.392;2024-02-14T13:26:05;7.68;;;5.57;;
83560;SDS011;73534;52.584;13.392;2024-02-14T13:28:30;6.57;;;5.13;;
83560;SDS011;73534;52.584;13.392;2024-02-14T13:30:55;8.40;;;6.27;;
83560;SDS011;73534;52.584;13.392;2024-02-14T13:33:21;9.50;;;5.95;;
83560;SDS011;73534;52.584;13.392;2024-02-14T13:35:46;7.83;;;5.80;;
83560;SDS011;73534;52.584;13.392;2024-02-14T13:38:11;7.50;;;5.60;;
83560;SDS011;73534;52.584;13.392;2024-02-14T13:40:36;8.03;;;6.07;;
83560;SDS011;73534;52.584;13.392;2024-02-14T13:43:01;7.88;;;5.65;;
83560;SDS011;73534;52.584;13.392;2024-02-14T13:45:30;8.43;;;5.60;;
83560;SDS011;73534;52.584;13.392;2024-02-14T13:48:02;8.55;;;6.10;;
83560;SDS011;73534;52.584;13.392;2024-02-14T13:50:29;7.10;;;5.70;;
83560;SDS011;73534;52.584;13.392;2024-02-14T13:52:54;8.00;;;6.43;;
83560;SDS011;73534;52.584;13.392;2024-02-14T13:55:20;10.05;;;6.47;;
83560;SDS011;73534;52.584;13.392;2024-02-14T13:57:45;9.25;;;6.30;;
83560;SDS011;73534;52.584;13.392;2024-02-14T14:00:10;7.43;;;5.87;;
83560;SDS011;73534;52.584;13.392;2024-02-14T14:02:36;8.98;;;6.03;;
83560;SDS011;73534;52.584;13.392;2024-02-14T14:05:08;7.18;;;5.93;;
83560;SDS011;73534;52.584;13.392;2024-02-14T14:07:37;7.35;;;6.03;;
83560;SDS011;73534;52.584;13.392;2024-02-14T14:10:03;7.10;;;6.40;;
83560;SDS011;73534;52.584;13.392;2024-02-14T14:12:28;7.55;;;6.18;;
83560;SDS011;73534;52.584;13.392;2024-02-14T14:14:53;8.70;;;6.70;;
83560;SDS011;73534;52.584;13.392;2024-02-14T14:17:19;9.45;;;6.53;;
83560;SDS011;73534;52.584;13.392;2024-02-14T14:19:44;8.75;;;6.00;;
83560;SDS011;73534;52.584;13.392;2024-02-14T14:22:09;7.38;;;6.35;;
83560;SDS011;73534;52.584;13.392;2024-02-14T14:24:35;6.90;;;5.65;;
83560;SDS011;73534;52.584;13.392;2024-02-14T14:27:00;9.27;;;6.27;;
83560;SDS011;73534;52.584;13.392;2024-02-14T14:29:25;9.30;;;6.67;;
83560;SDS011;73534;52.584;13.392;2024-02-14T14:31:50;7.95;;;6.22;;